sensor_id;sensor_type;location;lat;lon;timestamp;temperature;humidity
51867;DHT22;52862;52.504;13.480;2022-09-09T00:01:02;15.80;99.90
51867;DHT22;52862;52.504;13.480;2022-09-09T00:03:40;15.80;99.90
51867;DHT22;52862;52.504;13.480;2022-09-09T00:06:16;15.80;99.90
51867;DHT22;52862;52.504;13.480;2022-09-09T00:08:51;15.70;99.90
51867;DHT22;52862;52.504;13.480;2022-09-09T00:11:25;15.70;99.90
51867;DHT22;52862;52.504;13.480;2022-09-09T00:13:59;15.70;99.90
51867;DHT22;52862;52.504;13.480;2022-09-09T00:16:32;15.60;99.90
51867;DHT22;52862;52.504;13.480;2022-09-09T00:19:07;15.70;99.90
51867;DHT22;52862;52.504;13.480;2022-09-09T00:21:36;15.70;99.90
51867;DHT22;52862;52.504;13.480;2022-09-09T00:24:11;15.60;99.90
51867;DHT22;52862;52.504;13.480;2022-09-09T00:26:44;15.70;99.90
51867;DHT22;52862;52.504;13.480;2022-09-09T00:29:19;15.60;99.90
51867;DHT22;52862;52.504;13.480;2022-09-09T00:31:51;15.60;99.90
51867;DHT22;52862;52.504;13.480;2022-09-09T00:34:23;15.60;99.90
51867;DHT22;52862;52.504;13.480;2022-09-09T00:36:52;15.60;99.90
51867;DHT22;52862;52.504;13.480;2022-09-09T00:39:25;14.70;99.90
51867;DHT22;52862;52.504;13.480;2022-09-09T00:42:03;15.50;99.90
51867;DHT22;52862;52.504;13.480;2022-09-09T00:44:37;15.50;99.90
51867;DHT22;52862;52.504;13.480;2022-09-09T00:47:16;15.50;99.90
51867;DHT22;52862;52.504;13.480;2022-09-09T00:49:53;15.50;99.90
51867;DHT22;52862;52.504;13.480;2022-09-09T00:52:36;15.50;99.90
51867;DHT22;52862;52.504;13.480;2022-09-09T00:55:10;15.50;99.90
51867;DHT22;52862;52.504;13.480;2022-09-09T00:57:39;15.50;99.90
51867;DHT22;52862;52.504;13.480;2022-09-09T01:00:21;15.50;99.90
51867;DHT22;52862;52.504;13.480;2022-09-09T01:03:08;15.50;99.90
51867;DHT22;52862;52.504;13.480;2022-09-09T01:05:44;15.40;99.90
51867;DHT22;52862;52.504;13.480;2022-09-09T01:08:19;15.40;99.90
51867;DHT22;52862;52.504;13.480;2022-09-09T01:10:51;15.30;99.90
51867;DHT22;52862;52.504;13.480;2022-09-09T01:13:24;15.40;99.90
51867;DHT22;52862;52.504;13.480;2022-09-09T01:15:53;15.30;99.90
51867;DHT22;52862;52.504;13.480;2022-09-09T01:18:30;15.30;99.90
51867;DHT22;52862;52.504;13.480;2022-09-09T01:21:07;15.30;99.90
51867;DHT22;52862;52.504;13.480;2022-09-09T01:23:48;15.20;99.90
51867;DHT22;52862;52.504;13.480;2022-09-09T01:26:21;15.20;99.90
51867;DHT22;52862;52.504;13.480;2022-09-09T01:28:51;15.40;99.90
51867;DHT22;52862;52.504;13.480;2022-09-09T01:31:21;15.20;99.90
51867;DHT22;52862;52.504;13.480;2022-09-09T01:33:49;15.10;99.90
51867;DHT22;52862;52.504;13.480;2022-09-09T01:36:26;15.10;99.90
51867;DHT22;52862;52.504;13.480;2022-09-09T01:38:54;15.10;99.90
51867;DHT22;52862;52.504;13.480;2022-09-09T01:41:21;15.10;99.90
51867;DHT22;52862;52.504;13.480;2022-09-09T01:43:48;15.10;99.90
51867;DHT22;52862;52.504;13.480;2022-09-09T01:46:16;15.10;99.90
51867;DHT22;52862;52.504;13.480;2022-09-09T01:48:43;15.00;99.90
51867;DHT22;52862;52.504;13.480;2022-09-09T01:51:11;15.00;99.90
51867;DHT22;52862;52.504;13.480;2022-09-09T01:53:39;14.70;99.90
51867;DHT22;52862;52.504;13.480;2022-09-09T01:56:15;15.00;99.90
51867;DHT22;52862;52.504;13.480;2022-09-09T01:58:56;15.10;99.90
51867;DHT22;52862;52.504;13.480;2022-09-09T02:01:35;14.90;99.90
51867;DHT22;52862;52.504;13.480;2022-09-09T02:04:08;14.90;99.90
51867;DHT22;52862;52.504;13.480;2022-09-09T02:06:38;14.90;99.90
51867;DHT22;52862;52.504;13.480;2022-09-09T02:09:07;14.90;99.90
51867;DHT22;52862;52.504;13.480;2022-09-09T02:11:36;15.00;99.90
51867;DHT22;52862;52.504;13.480;2022-09-09T02:14:08;15.00;99.90
51867;DHT22;52862;52.504;13.480;2022-09-09T02:16:39;14.90;99.90
51867;DHT22;52862;52.504;13.480;2022-09-09T02:19:11;14.90;99.90
51867;DHT22;52862;52.504;13.480;2022-09-09T02:21:40;14.90;99.90
51867;DHT22;52862;52.504;13.480;2022-09-09T02:24:09;14.90;99.90
51867;DHT22;52862;52.504;13.480;2022-09-09T02:26:40;14.80;99.90
51867;DHT22;52862;52.504;13.480;2022-09-09T02:29:14;15.10;99.90
51867;DHT22;52862;52.504;13.480;2022-09-09T02:31:42;14.90;99.90
51867;DHT22;52862;52.504;13.480;2022-09-09T02:34:11;15.00;99.90
51867;DHT22;52862;52.504;13.480;2022-09-09T02:36:40;14.80;99.90
51867;DHT22;52862;52.504;13.480;2022-09-09T02:39:08;14.80;99.90
51867;DHT22;52862;52.504;13.480;2022-09-09T02:41:38;14.80;99.90
51867;DHT22;52862;52.504;13.480;2022-09-09T02:44:08;14.80;99.90
51867;DHT22;52862;52.504;13.480;2022-09-09T02:46:46;14.70;99.90
51867;DHT22;52862;52.504;13.480;2022-09-09T02:49:21;14.80;99.90
51867;DHT22;52862;52.504;13.480;2022-09-09T02:51:59;14.70;99.90
51867;DHT22;52862;52.504;13.480;2022-09-09T02:54:28;14.70;99.90
51867;DHT22;52862;52.504;13.480;2022-09-09T02:57:01;14.70;99.90
51867;DHT22;52862;52.504;13.480;2022-09-09T02:59:31;14.80;99.90
51867;DHT22;52862;52.504;13.480;2022-09-09T03:01:57;14.90;99.90
51867;DHT22;52862;52.504;13.480;2022-09-09T03:04:24;14.70;99.90
51867;DHT22;52862;52.504;13.480;2022-09-09T03:06:51;14.70;99.90
51867;DHT22;52862;52.504;13.480;2022-09-09T03:09:17;14.70;99.90
51867;DHT22;52862;52.504;13.480;2022-09-09T03:11:44;14.80;99.90
51867;DHT22;52862;52.504;13.480;2022-09-09T03:14:11;14.60;99.90
51867;DHT22;52862;52.504;13.480;2022-09-09T03:16:38;14.60;99.90
51867;DHT22;52862;52.504;13.480;2022-09-09T03:19:05;14.70;99.90
51867;DHT22;52862;52.504;13.480;2022-09-09T03:21:33;14.60;99.90
51867;DHT22;52862;52.504;13.480;2022-09-09T03:23:59;14.90;99.90
51867;DHT22;52862;52.504;13.480;2022-09-09T03:26:26;14.60;99.90
51867;DHT22;52862;52.504;13.480;2022-09-09T03:28:53;14.60;99.90
51867;DHT22;52862;52.504;13.480;2022-09-09T03:31:21;14.50;99.90
51867;DHT22;52862;52.504;13.480;2022-09-09T03:33:48;14.50;99.90
51867;DHT22;52862;52.504;13.480;2022-09-09T03:36:15;14.50;99.90
51867;DHT22;52862;52.504;13.480;2022-09-09T03:38:42;14.50;99.90
51867;DHT22;52862;52.504;13.480;2022-09-09T03:41:08;14.50;99.90
51867;DHT22;52862;52.504;13.480;2022-09-09T03:43:35;14.50;99.90
51867;DHT22;52862;52.504;13.480;2022-09-09T03:46:03;14.50;99.90
51867;DHT22;52862;52.504;13.480;2022-09-09T03:48:30;14.50;99.90
51867;DHT22;52862;52.504;13.480;2022-09-09T03:50:58;14.50;99.90
51867;DHT22;52862;52.504;13.480;2022-09-09T03:53:27;14.50;99.90
51867;DHT22;52862;52.504;13.480;2022-09-09T03:55:56;14.50;99.90
51867;DHT22;52862;52.504;13.480;2022-09-09T03:58:26;14.50;99.90
51867;DHT22;52862;52.504;13.480;2022-09-09T04:00:54;14.50;99.90
51867;DHT22;52862;52.504;13.480;2022-09-09T04:03:21;14.50;99.90
51867;DHT22;52862;52.504;13.480;2022-09-09T04:05:55;14.50;99.90
51867;DHT22;52862;52.504;13.480;2022-09-09T04:08:23;14.50;99.90
51867;DHT22;52862;52.504;13.480;2022-09-09T04:10:51;14.50;99.90
51867;DHT22;52862;52.504;13.480;2022-09-09T04:13:19;14.40;99.90
51867;DHT22;52862;52.504;13.480;2022-09-09T04:15:51;14.40;99.90
51867;DHT22;52862;52.504;13.480;2022-09-09T04:18:17;14.50;99.90
51867;DHT22;52862;52.504;13.480;2022-09-09T04:20:46;14.40;99.90
51867;DHT22;52862;52.504;13.480;2022-09-09T04:23:13;14.30;99.90
51867;DHT22;52862;52.504;13.480;2022-09-09T04:25:44;14.40;99.90
51867;DHT22;52862;52.504;13.480;2022-09-09T04:28:11;14.20;99.90
51867;DHT22;52862;52.504;13.480;2022-09-09T04:30:37;14.30;99.90
51867;DHT22;52862;52.504;13.480;2022-09-09T04:33:05;14.30;99.90
51867;DHT22;52862;52.504;13.480;2022-09-09T04:35:33;14.30;99.90
51867;DHT22;52862;52.504;13.480;2022-09-09T04:37:59;14.30;99.90
51867;DHT22;52862;52.504;13.480;2022-09-09T04:40:28;14.40;99.90
51867;DHT22;52862;52.504;13.480;2022-09-09T04:42:57;14.40;99.90
51867;DHT22;52862;52.504;13.480;2022-09-09T04:45:24;14.30;99.90
51867;DHT22;52862;52.504;13.480;2022-09-09T04:47:52;14.40;99.90
51867;DHT22;52862;52.504;13.480;2022-09-09T04:50:19;14.40;99.90
51867;DHT22;52862;52.504;13.480;2022-09-09T04:52:46;14.40;99.90
51867;DHT22;52862;52.504;13.480;2022-09-09T04:55:12;14.40;99.90
51867;DHT22;52862;52.504;13.480;2022-09-09T04:57:39;14.40;99.90
51867;DHT22;52862;52.504;13.480;2022-09-09T05:00:08;14.40;99.90
51867;DHT22;52862;52.504;13.480;2022-09-09T05:02:37;14.50;99.90
51867;DHT22;52862;52.504;13.480;2022-09-09T05:05:06;14.60;99.90
51867;DHT22;52862;52.504;13.480;2022-09-09T05:07:32;14.60;99.90
51867;DHT22;52862;52.504;13.480;2022-09-09T05:09:59;14.20;99.90
51867;DHT22;52862;52.504;13.480;2022-09-09T05:12:26;14.70;99.90
51867;DHT22;52862;52.504;13.480;2022-09-09T05:14:53;14.70;99.90
51867;DHT22;52862;52.504;13.480;2022-09-09T05:17:20;14.80;99.90
51867;DHT22;52862;52.504;13.480;2022-09-09T05:19:47;15.00;99.90
51867;DHT22;52862;52.504;13.480;2022-09-09T05:22:18;15.00;99.90
51867;DHT22;52862;52.504;13.480;2022-09-09T05:24:46;15.00;99.90
51867;DHT22;52862;52.504;13.480;2022-09-09T05:27:14;15.10;99.90
51867;DHT22;52862;52.504;13.480;2022-09-09T05:29:41;15.20;99.90
51867;DHT22;52862;52.504;13.480;2022-09-09T05:32:10;15.20;99.90
51867;DHT22;52862;52.504;13.480;2022-09-09T05:34:42;15.20;99.90
51867;DHT22;52862;52.504;13.480;2022-09-09T05:37:08;15.20;99.90
51867;DHT22;52862;52.504;13.480;2022-09-09T05:39:35;15.50;99.90
51867;DHT22;52862;52.504;13.480;2022-09-09T05:42:03;15.40;99.90
51867;DHT22;52862;52.504;13.480;2022-09-09T05:44:30;15.40;99.90
51867;DHT22;52862;52.504;13.480;2022-09-09T05:46:57;15.40;99.90
51867;DHT22;52862;52.504;13.480;2022-09-09T05:49:24;15.40;99.90
51867;DHT22;52862;52.504;13.480;2022-09-09T05:51:52;15.50;99.90
51867;DHT22;52862;52.504;13.480;2022-09-09T05:54:19;15.70;99.90
51867;DHT22;52862;52.504;13.480;2022-09-09T05:56:45;15.70;99.90
51867;DHT22;52862;52.504;13.480;2022-09-09T05:59:17;15.70;99.90
51867;DHT22;52862;52.504;13.480;2022-09-09T06:01:44;16.00;99.90
51867;DHT22;52862;52.504;13.480;2022-09-09T06:04:11;15.80;99.90
51867;DHT22;52862;52.504;13.480;2022-09-09T06:06:38;16.20;99.90
51867;DHT22;52862;52.504;13.480;2022-09-09T06:09:08;16.00;99.90
51867;DHT22;52862;52.504;13.480;2022-09-09T06:11:37;16.10;99.90
51867;DHT22;52862;52.504;13.480;2022-09-09T06:14:05;16.20;99.90
51867;DHT22;52862;52.504;13.480;2022-09-09T06:16:34;16.40;99.90
51867;DHT22;52862;52.504;13.480;2022-09-09T06:19:01;16.40;99.90
51867;DHT22;52862;52.504;13.480;2022-09-09T06:21:30;16.70;99.90
51867;DHT22;52862;52.504;13.480;2022-09-09T06:23:58;16.60;99.90
51867;DHT22;52862;52.504;13.480;2022-09-09T06:26:30;16.80;99.90
51867;DHT22;52862;52.504;13.480;2022-09-09T06:28:58;16.40;99.90
51867;DHT22;52862;52.504;13.480;2022-09-09T06:31:28;17.10;99.90
51867;DHT22;52862;52.504;13.480;2022-09-09T06:33:58;17.20;99.90
51867;DHT22;52862;52.504;13.480;2022-09-09T06:36:26;17.20;99.90
51867;DHT22;52862;52.504;13.480;2022-09-09T06:38:53;17.40;99.90
51867;DHT22;52862;52.504;13.480;2022-09-09T06:41:22;17.30;99.90
51867;DHT22;52862;52.504;13.480;2022-09-09T06:43:51;17.40;99.90
51867;DHT22;52862;52.504;13.480;2022-09-09T06:46:19;17.00;99.90
51867;DHT22;52862;52.504;13.480;2022-09-09T06:48:48;17.20;99.90
51867;DHT22;52862;52.504;13.480;2022-09-09T06:51:16;16.70;99.90
51867;DHT22;52862;52.504;13.480;2022-09-09T06:53:45;17.10;99.90
51867;DHT22;52862;52.504;13.480;2022-09-09T06:56:20;16.80;99.90
51867;DHT22;52862;52.504;13.480;2022-09-09T06:58:55;17.30;99.90
51867;DHT22;52862;52.504;13.480;2022-09-09T07:01:24;17.40;99.90
51867;DHT22;52862;52.504;13.480;2022-09-09T07:03:52;17.60;99.90
51867;DHT22;52862;52.504;13.480;2022-09-09T07:06:21;17.50;99.90
51867;DHT22;52862;52.504;13.480;2022-09-09T07:08:50;17.90;99.90
51867;DHT22;52862;52.504;13.480;2022-09-09T07:11:25;18.10;99.90
51867;DHT22;52862;52.504;13.480;2022-09-09T07:13:54;18.00;99.90
51867;DHT22;52862;52.504;13.480;2022-09-09T07:16:22;18.30;99.90
51867;DHT22;52862;52.504;13.480;2022-09-09T07:18:51;18.60;99.90
51867;DHT22;52862;52.504;13.480;2022-09-09T07:21:19;18.90;99.90
51867;DHT22;52862;52.504;13.480;2022-09-09T07:23:46;19.20;99.90
51867;DHT22;52862;52.504;13.480;2022-09-09T07:26:15;19.40;99.90
51867;DHT22;52862;52.504;13.480;2022-09-09T07:28:42;19.50;99.90
51867;DHT22;52862;52.504;13.480;2022-09-09T07:31:15;19.50;99.90
51867;DHT22;52862;52.504;13.480;2022-09-09T07:33:43;19.20;99.90
51867;DHT22;52862;52.504;13.480;2022-09-09T07:36:13;19.20;99.90
51867;DHT22;52862;52.504;13.480;2022-09-09T07:38:41;19.20;99.90
51867;DHT22;52862;52.504;13.480;2022-09-09T07:41:11;19.30;99.90
51867;DHT22;52862;52.504;13.480;2022-09-09T07:43:39;19.00;99.90
51867;DHT22;52862;52.504;13.480;2022-09-09T07:46:10;19.70;99.90
51867;DHT22;52862;52.504;13.480;2022-09-09T07:48:43;20.00;99.90
51867;DHT22;52862;52.504;13.480;2022-09-09T07:51:13;20.00;99.90
51867;DHT22;52862;52.504;13.480;2022-09-09T07:53:43;20.10;99.90
51867;DHT22;52862;52.504;13.480;2022-09-09T07:56:12;19.70;99.90
51867;DHT22;52862;52.504;13.480;2022-09-09T07:58:40;20.20;99.90
51867;DHT22;52862;52.504;13.480;2022-09-09T08:01:11;20.50;99.90
51867;DHT22;52862;52.504;13.480;2022-09-09T08:03:40;20.70;99.90
51867;DHT22;52862;52.504;13.480;2022-09-09T08:06:11;20.60;99.90
51867;DHT22;52862;52.504;13.480;2022-09-09T08:08:40;20.70;99.90
51867;DHT22;52862;52.504;13.480;2022-09-09T08:11:11;20.80;99.90
51867;DHT22;52862;52.504;13.480;2022-09-09T08:13:39;20.80;99.90
51867;DHT22;52862;52.504;13.480;2022-09-09T08:16:08;20.80;99.90
51867;DHT22;52862;52.504;13.480;2022-09-09T08:18:35;20.90;99.90
51867;DHT22;52862;52.504;13.480;2022-09-09T08:21:11;19.70;99.90
51867;DHT22;52862;52.504;13.480;2022-09-09T08:23:39;20.80;99.90
51867;DHT22;52862;52.504;13.480;2022-09-09T08:26:09;20.60;99.90
51867;DHT22;52862;52.504;13.480;2022-09-09T08:28:36;20.30;99.90
51867;DHT22;52862;52.504;13.480;2022-09-09T08:31:08;20.10;99.90
51867;DHT22;52862;52.504;13.480;2022-09-09T08:33:36;19.90;99.90
51867;DHT22;52862;52.504;13.480;2022-09-09T08:36:05;19.70;99.90
51867;DHT22;52862;52.504;13.480;2022-09-09T08:38:32;19.50;99.90
51867;DHT22;52862;52.504;13.480;2022-09-09T08:41:12;19.60;99.90
51867;DHT22;52862;52.504;13.480;2022-09-09T08:43:43;19.70;99.90
51867;DHT22;52862;52.504;13.480;2022-09-09T08:46:16;19.50;99.90
51867;DHT22;52862;52.504;13.480;2022-09-09T08:48:54;19.70;99.90
51867;DHT22;52862;52.504;13.480;2022-09-09T08:51:25;19.50;99.90
51867;DHT22;52862;52.504;13.480;2022-09-09T08:53:53;19.30;99.90
51867;DHT22;52862;52.504;13.480;2022-09-09T08:56:26;19.70;99.90
51867;DHT22;52862;52.504;13.480;2022-09-09T08:58:55;19.80;99.90
51867;DHT22;52862;52.504;13.480;2022-09-09T09:01:44;19.90;99.90
51867;DHT22;52862;52.504;13.480;2022-09-09T09:04:34;20.00;99.90
51867;DHT22;52862;52.504;13.480;2022-09-09T09:07:11;20.10;99.90
51867;DHT22;52862;52.504;13.480;2022-09-09T09:09:55;20.30;99.90
51867;DHT22;52862;52.504;13.480;2022-09-09T09:12:27;20.30;99.90
51867;DHT22;52862;52.504;13.480;2022-09-09T09:14:55;20.70;99.90
51867;DHT22;52862;52.504;13.480;2022-09-09T09:17:26;21.00;99.90
51867;DHT22;52862;52.504;13.480;2022-09-09T09:19:55;21.30;99.90
51867;DHT22;52862;52.504;13.480;2022-09-09T09:22:26;21.00;99.90
51867;DHT22;52862;52.504;13.480;2022-09-09T09:25:02;20.90;99.90
51867;DHT22;52862;52.504;13.480;2022-09-09T09:27:34;20.90;99.90
51867;DHT22;52862;52.504;13.480;2022-09-09T09:30:12;21.30;99.90
51867;DHT22;52862;52.504;13.480;2022-09-09T09:32:57;21.60;99.90
51867;DHT22;52862;52.504;13.480;2022-09-09T09:35:26;22.00;99.90
51867;DHT22;52862;52.504;13.480;2022-09-09T09:37:53;22.00;99.90
51867;DHT22;52862;52.504;13.480;2022-09-09T09:40:49;22.10;99.90
51867;DHT22;52862;52.504;13.480;2022-09-09T09:43:20;22.10;99.90
51867;DHT22;52862;52.504;13.480;2022-09-09T09:45:48;22.00;99.90
51867;DHT22;52862;52.504;13.480;2022-09-09T09:48:35;21.90;99.90
51867;DHT22;52862;52.504;13.480;2022-09-09T09:51:06;21.90;99.90
51867;DHT22;52862;52.504;13.480;2022-09-09T09:53:36;20.60;99.90
51867;DHT22;52862;52.504;13.480;2022-09-09T09:56:07;21.90;99.90
51867;DHT22;52862;52.504;13.480;2022-09-09T09:58:48;22.10;99.90
51867;DHT22;52862;52.504;13.480;2022-09-09T10:01:21;21.60;99.90
51867;DHT22;52862;52.504;13.480;2022-09-09T10:03:51;21.60;99.90
51867;DHT22;52862;52.504;13.480;2022-09-09T10:06:30;21.30;99.90
51867;DHT22;52862;52.504;13.480;2022-09-09T10:09:01;21.20;99.90
51867;DHT22;52862;52.504;13.480;2022-09-09T10:11:41;20.90;99.90
51867;DHT22;52862;52.504;13.480;2022-09-09T10:14:19;20.90;99.90
51867;DHT22;52862;52.504;13.480;2022-09-09T10:17:04;22.00;99.90
51867;DHT22;52862;52.504;13.480;2022-09-09T10:19:53;21.50;99.90
51867;DHT22;52862;52.504;13.480;2022-09-09T10:22:27;21.50;99.90
51867;DHT22;52862;52.504;13.480;2022-09-09T10:28:15;22.10;99.90
51867;DHT22;52862;52.504;13.480;2022-09-09T10:30:56;22.10;99.90
51867;DHT22;52862;52.504;13.480;2022-09-09T10:33:32;22.10;99.90
51867;DHT22;52862;52.504;13.480;2022-09-09T10:36:21;22.00;99.90
51867;DHT22;52862;52.504;13.480;2022-09-09T10:38:53;22.10;99.90
51867;DHT22;52862;52.504;13.480;2022-09-09T10:41:34;22.00;99.90
51867;DHT22;52862;52.504;13.480;2022-09-09T10:44:17;22.10;99.90
51867;DHT22;52862;52.504;13.480;2022-09-09T10:47:00;22.00;99.90
51867;DHT22;52862;52.504;13.480;2022-09-09T10:49:56;21.80;99.90
51867;DHT22;52862;52.504;13.480;2022-09-09T10:52:30;21.70;99.90
51867;DHT22;52862;52.504;13.480;2022-09-09T10:55:02;21.70;99.90
51867;DHT22;52862;52.504;13.480;2022-09-09T10:57:37;21.70;99.90
51867;DHT22;52862;52.504;13.480;2022-09-09T11:00:19;21.70;99.90
51867;DHT22;52862;52.504;13.480;2022-09-09T11:02:50;21.90;99.90
51867;DHT22;52862;52.504;13.480;2022-09-09T11:05:21;22.00;99.90
51867;DHT22;52862;52.504;13.480;2022-09-09T11:07:56;22.10;99.90
51867;DHT22;52862;52.504;13.480;2022-09-09T11:10:36;22.30;99.90
51867;DHT22;52862;52.504;13.480;2022-09-09T11:13:14;22.20;99.90
51867;DHT22;52862;52.504;13.480;2022-09-09T11:15:45;22.30;99.90
51867;DHT22;52862;52.504;13.480;2022-09-09T11:18:15;22.50;99.90
51867;DHT22;52862;52.504;13.480;2022-09-09T11:20:48;22.70;99.90
51867;DHT22;52862;52.504;13.480;2022-09-09T11:23:23;22.70;99.90
51867;DHT22;52862;52.504;13.480;2022-09-09T11:25:55;23.00;99.90
51867;DHT22;52862;52.504;13.480;2022-09-09T11:28:37;23.00;99.90
51867;DHT22;52862;52.504;13.480;2022-09-09T11:31:27;23.30;99.90
51867;DHT22;52862;52.504;13.480;2022-09-09T11:34:21;23.60;99.90
51867;DHT22;52862;52.504;13.480;2022-09-09T11:37:04;23.70;99.90
51867;DHT22;52862;52.504;13.480;2022-09-09T11:39:47;23.70;99.90
51867;DHT22;52862;52.504;13.480;2022-09-09T11:42:22;23.50;99.90
51867;DHT22;52862;52.504;13.480;2022-09-09T11:44:50;24.00;99.90
51867;DHT22;52862;52.504;13.480;2022-09-09T11:47:24;24.10;99.90
51867;DHT22;52862;52.504;13.480;2022-09-09T11:49:52;24.40;99.90
51867;DHT22;52862;52.504;13.480;2022-09-09T11:52:23;24.50;99.90
51867;DHT22;52862;52.504;13.480;2022-09-09T11:54:52;24.80;99.90
51867;DHT22;52862;52.504;13.480;2022-09-09T11:57:26;24.90;99.90
51867;DHT22;52862;52.504;13.480;2022-09-09T11:59:57;24.70;99.90
51867;DHT22;52862;52.504;13.480;2022-09-09T12:02:26;24.10;99.90
51867;DHT22;52862;52.504;13.480;2022-09-09T12:04:59;23.70;99.90
51867;DHT22;52862;52.504;13.480;2022-09-09T12:07:34;23.50;99.90
51867;DHT22;52862;52.504;13.480;2022-09-09T12:10:05;23.50;99.90
51867;DHT22;52862;52.504;13.480;2022-09-09T12:12:47;23.50;99.90
51867;DHT22;52862;52.504;13.480;2022-09-09T12:15:21;23.80;99.90
51867;DHT22;52862;52.504;13.480;2022-09-09T12:17:52;24.20;99.90
51867;DHT22;52862;52.504;13.480;2022-09-09T12:20:21;24.40;99.90
51867;DHT22;52862;52.504;13.480;2022-09-09T12:23:06;24.60;99.90
51867;DHT22;52862;52.504;13.480;2022-09-09T12:25:49;25.10;99.90
51867;DHT22;52862;52.504;13.480;2022-09-09T12:28:22;25.30;99.90
51867;DHT22;52862;52.504;13.480;2022-09-09T12:30:56;25.50;99.90
51867;DHT22;52862;52.504;13.480;2022-09-09T12:33:34;25.50;99.90
51867;DHT22;52862;52.504;13.480;2022-09-09T12:36:02;25.20;99.90
51867;DHT22;52862;52.504;13.480;2022-09-09T12:38:33;24.80;99.90
51867;DHT22;52862;52.504;13.480;2022-09-09T12:41:02;24.70;99.90
51867;DHT22;52862;52.504;13.480;2022-09-09T12:43:30;24.70;99.90
51867;DHT22;52862;52.504;13.480;2022-09-09T12:46:00;24.30;99.90
51867;DHT22;52862;52.504;13.480;2022-09-09T12:48:34;24.10;99.90
51867;DHT22;52862;52.504;13.480;2022-09-09T12:51:05;24.00;99.90
51867;DHT22;52862;52.504;13.480;2022-09-09T12:53:35;24.00;99.90
51867;DHT22;52862;52.504;13.480;2022-09-09T12:56:05;23.90;99.90
51867;DHT22;52862;52.504;13.480;2022-09-09T12:58:35;23.90;99.90
51867;DHT22;52862;52.504;13.480;2022-09-09T13:01:05;23.90;99.90
51867;DHT22;52862;52.504;13.480;2022-09-09T13:03:33;23.90;99.90
51867;DHT22;52862;52.504;13.480;2022-09-09T13:06:12;24.10;99.90
51867;DHT22;52862;52.504;13.480;2022-09-09T13:08:40;24.10;99.90
51867;DHT22;52862;52.504;13.480;2022-09-09T13:11:10;24.10;99.90
51867;DHT22;52862;52.504;13.480;2022-09-09T13:13:41;24.20;99.90
51867;DHT22;52862;52.504;13.480;2022-09-09T13:16:20;23.30;99.90
51867;DHT22;52862;52.504;13.480;2022-09-09T13:18:49;24.20;99.90
51867;DHT22;52862;52.504;13.480;2022-09-09T13:21:16;24.10;99.90
51867;DHT22;52862;52.504;13.480;2022-09-09T13:23:49;23.70;99.90
51867;DHT22;52862;52.504;13.480;2022-09-09T13:26:23;23.60;99.90
51867;DHT22;52862;52.504;13.480;2022-09-09T13:28:52;23.60;99.90
51867;DHT22;52862;52.504;13.480;2022-09-09T13:31:22;23.70;99.90
51867;DHT22;52862;52.504;13.480;2022-09-09T13:33:49;23.80;99.90
51867;DHT22;52862;52.504;13.480;2022-09-09T13:36:16;24.00;99.90
51867;DHT22;52862;52.504;13.480;2022-09-09T13:38:56;24.10;99.90
51867;DHT22;52862;52.504;13.480;2022-09-09T13:41:30;24.30;99.90
51867;DHT22;52862;52.504;13.480;2022-09-09T13:44:00;24.50;99.90
51867;DHT22;52862;52.504;13.480;2022-09-09T13:46:34;24.60;99.90
51867;DHT22;52862;52.504;13.480;2022-09-09T13:49:19;24.40;99.90
51867;DHT22;52862;52.504;13.480;2022-09-09T13:51:49;24.70;99.90
51867;DHT22;52862;52.504;13.480;2022-09-09T13:54:17;25.90;99.90
51867;DHT22;52862;52.504;13.480;2022-09-09T13:56:48;29.30;99.90
51867;DHT22;52862;52.504;13.480;2022-09-09T13:59:18;30.30;98.70
51867;DHT22;52862;52.504;13.480;2022-09-09T14:01:49;30.20;99.20
51867;DHT22;52862;52.504;13.480;2022-09-09T14:04:18;28.70;98.70
51867;DHT22;52862;52.504;13.480;2022-09-09T14:06:49;26.80;99.90
51867;DHT22;52862;52.504;13.480;2022-09-09T14:09:18;25.70;99.90
51867;DHT22;52862;52.504;13.480;2022-09-09T14:11:45;24.70;99.90
51867;DHT22;52862;52.504;13.480;2022-09-09T14:14:12;24.40;99.90
51867;DHT22;52862;52.504;13.480;2022-09-09T14:16:40;24.10;99.90
51867;DHT22;52862;52.504;13.480;2022-09-09T14:19:08;24.00;99.90
51867;DHT22;52862;52.504;13.480;2022-09-09T14:21:36;24.00;99.90
51867;DHT22;52862;52.504;13.480;2022-09-09T14:24:03;24.30;99.90
51867;DHT22;52862;52.504;13.480;2022-09-09T14:26:30;24.00;99.90
51867;DHT22;52862;52.504;13.480;2022-09-09T14:28:57;24.00;99.90
51867;DHT22;52862;52.504;13.480;2022-09-09T14:31:25;24.10;99.90
51867;DHT22;52862;52.504;13.480;2022-09-09T14:33:52;24.30;99.90
51867;DHT22;52862;52.504;13.480;2022-09-09T14:36:21;24.60;99.90
51867;DHT22;52862;52.504;13.480;2022-09-09T14:38:49;25.40;99.90
51867;DHT22;52862;52.504;13.480;2022-09-09T14:41:17;26.00;99.90
51867;DHT22;52862;52.504;13.480;2022-09-09T14:43:45;25.90;99.90
51867;DHT22;52862;52.504;13.480;2022-09-09T14:46:13;25.70;99.90
51867;DHT22;52862;52.504;13.480;2022-09-09T14:48:41;26.00;99.90
51867;DHT22;52862;52.504;13.480;2022-09-09T14:51:11;25.90;99.90
51867;DHT22;52862;52.504;13.480;2022-09-09T14:53:39;26.20;99.90
51867;DHT22;52862;52.504;13.480;2022-09-09T14:56:07;25.40;99.90
51867;DHT22;52862;52.504;13.480;2022-09-09T14:58:35;25.10;99.90
51867;DHT22;52862;52.504;13.480;2022-09-09T15:01:03;24.00;99.90
51867;DHT22;52862;52.504;13.480;2022-09-09T15:03:31;23.70;99.90
51867;DHT22;52862;52.504;13.480;2022-09-09T15:05:57;23.30;99.90
51867;DHT22;52862;52.504;13.480;2022-09-09T15:08:25;23.30;99.90
51867;DHT22;52862;52.504;13.480;2022-09-09T15:10:59;23.20;99.90
51867;DHT22;52862;52.504;13.480;2022-09-09T15:13:26;23.00;99.90
51867;DHT22;52862;52.504;13.480;2022-09-09T15:15:53;22.80;99.90
51867;DHT22;52862;52.504;13.480;2022-09-09T15:18:20;22.70;99.90
51867;DHT22;52862;52.504;13.480;2022-09-09T15:20:47;22.70;99.90
51867;DHT22;52862;52.504;13.480;2022-09-09T15:23:14;22.90;99.90
51867;DHT22;52862;52.504;13.480;2022-09-09T15:25:51;23.30;99.90
51867;DHT22;52862;52.504;13.480;2022-09-09T15:28:21;23.90;99.90
51867;DHT22;52862;52.504;13.480;2022-09-09T15:30:48;23.90;99.90
51867;DHT22;52862;52.504;13.480;2022-09-09T15:33:15;24.30;99.90
51867;DHT22;52862;52.504;13.480;2022-09-09T15:35:42;24.40;99.90
51867;DHT22;52862;52.504;13.480;2022-09-09T15:38:09;24.40;99.90
51867;DHT22;52862;52.504;13.480;2022-09-09T15:40:36;24.20;99.90
51867;DHT22;52862;52.504;13.480;2022-09-09T15:43:06;23.80;99.90